createdAt,value
2022-08-03T00:00:06.472Z,74.33
2022-08-03T00:01:06.889Z,74.13
2022-08-03T00:02:06.449Z,74.13
2022-08-03T00:03:06.532Z,74.43
2022-08-03T00:04:06.442Z,74.54
2022-08-03T00:05:06.405Z,74.63
2022-08-03T00:06:06.379Z,74.93
2022-08-03T00:07:06.368Z,75.13
2022-08-03T00:08:06.748Z,75.04
2022-08-03T00:09:06.344Z,74.84
2022-08-03T00:10:06.426Z,75.17
2022-08-03T00:11:06.339Z,75.07
2022-08-03T00:12:06.333Z,75.07
2022-08-03T00:13:06.312Z,75.17
2022-08-03T00:14:06.303Z,75.37
2022-08-03T00:15:10.378Z,75.17
2022-08-03T00:16:06.317Z,75.17
2022-08-03T00:17:06.257Z,74.97
2022-08-03T00:18:06.270Z,75.37
2022-08-03T00:19:06.247Z,75.27
2022-08-03T00:20:06.223Z,75.17
2022-08-03T00:21:06.205Z,74.87
2022-08-03T00:22:06.693Z,74.97
2022-08-03T00:23:06.184Z,74.97
2022-08-03T00:24:06.183Z,74.87
2022-08-03T00:25:06.166Z,74.77
2022-08-03T00:26:06.168Z,74.57
2022-08-03T00:27:06.154Z,74.47
2022-08-03T00:28:06.168Z,73.97
2022-08-03T00:29:06.468Z,74.17
2022-08-03T00:30:06.125Z,74.07
2022-08-03T00:31:06.103Z,74.17
2022-08-03T00:32:06.092Z,74.07
2022-08-03T00:33:06.073Z,73.97
2022-08-03T00:34:06.876Z,73.77
2022-08-03T00:35:09.838Z,73.86
2022-08-03T00:36:06.078Z,73.36
2022-08-03T00:37:06.040Z,73.53
2022-08-03T00:38:06.063Z,73.43
2022-08-03T00:39:06.006Z,73.23
2022-08-03T00:40:06.033Z,73.43
2022-08-03T00:41:05.993Z,73.23
2022-08-03T00:42:06.350Z,73.33
2022-08-03T00:43:06.000Z,73.33
2022-08-03T00:44:05.969Z,73.23
2022-08-03T00:45:05.959Z,73.43
2022-08-03T00:46:05.999Z,73.67
2022-08-03T00:47:05.928Z,73.97
2022-08-03T00:48:05.928Z,73.97
2022-08-03T00:49:05.973Z,73.97
2022-08-03T00:50:05.906Z,73.97
2022-08-03T00:51:05.893Z,74.27
2022-08-03T00:52:07.736Z,74.27
2022-08-03T00:53:05.863Z,74.27
2022-08-03T00:54:05.861Z,74.37
2022-08-03T00:55:06.231Z,74.57
2022-08-03T00:56:05.844Z,74.57
2022-08-03T00:57:05.816Z,74.77
2022-08-03T00:58:05.845Z,75.10
2022-08-03T00:59:05.792Z,74.80
2022-08-03T01:00:05.845Z,74.90
2022-08-03T01:01:05.828Z,75.01
2022-08-03T01:02:08.141Z,75.31
2022-08-03T01:03:05.745Z,75.21
2022-08-03T01:04:05.819Z,75.60
2022-08-03T01:05:05.739Z,75.41
2022-08-03T01:06:05.734Z,76.01
2022-08-03T01:07:05.988Z,75.51
2022-08-03T01:08:05.716Z,75.71
2022-08-03T01:09:06.134Z,76.01
2022-08-03T01:10:05.712Z,76.54
2022-08-03T01:11:05.677Z,76.04
2022-08-03T01:12:06.411Z,75.95
2022-08-03T01:13:05.638Z,76.15
2022-08-03T01:14:18.820Z,76.34
2022-08-03T01:15:05.639Z,76.34
2022-08-03T01:16:06.049Z,76.34
2022-08-03T01:17:05.635Z,76.34
2022-08-03T01:18:05.614Z,76.54
2022-08-03T01:19:05.583Z,76.54
2022-08-03T01:20:05.588Z,76.45
2022-08-03T01:21:05.557Z,76.34
2022-08-03T01:22:05.621Z,76.34
2022-08-03T01:23:06.019Z,76.54
2022-08-03T01:24:05.531Z,76.65
2022-08-03T01:25:05.519Z,76.54
2022-08-03T01:26:05.528Z,76.58
2022-08-03T01:27:05.528Z,76.68
2022-08-03T01:28:05.532Z,76.89
2022-08-03T01:29:05.481Z,76.78
2022-08-03T01:30:05.875Z,76.98
2022-08-03T01:31:05.444Z,76.98
2022-08-03T01:32:53.230Z,76.98
2022-08-03T01:33:05.695Z,77.28
2022-08-03T01:34:05.464Z,77.19
2022-08-03T01:35:05.404Z,77.19
2022-08-03T01:36:05.426Z,77.48
2022-08-03T01:37:05.699Z,77.48
2022-08-03T01:38:05.401Z,77.39
2022-08-03T01:39:05.354Z,77.48
2022-08-03T01:40:05.389Z,77.59
2022-08-03T01:41:05.337Z,77.72
2022-08-03T01:42:05.350Z,77.42
2022-08-03T01:43:05.732Z,77.72
2022-08-03T01:44:29.111Z,77.92
2022-08-03T01:45:05.306Z,78.03
2022-08-03T01:46:05.333Z,78.12
2022-08-03T01:47:05.290Z,78.33
2022-08-03T01:48:05.296Z,78.22
2022-08-03T01:49:09.354Z,78.33
2022-08-03T01:50:05.249Z,78.42
2022-08-03T01:51:05.223Z,78.22
2022-08-03T01:52:05.594Z,78.33
2022-08-03T01:53:05.210Z,78.53
2022-08-03T01:54:05.205Z,78.33
2022-08-03T01:55:05.190Z,78.42
2022-08-03T01:56:06.643Z,78.42
2022-08-03T01:57:05.174Z,78.63
2022-08-03T01:58:06.794Z,78.83
2022-08-03T01:59:05.150Z,78.83
2022-08-03T02:00:05.137Z,78.93
2022-08-03T02:01:05.249Z,78.93
2022-08-03T02:02:29.117Z,78.63
2022-08-03T02:03:05.108Z,78.83
2022-08-03T02:04:05.186Z,79.03
2022-08-03T02:05:05.078Z,79.13
2022-08-03T02:07:00.366Z,78.93
2022-08-03T02:07:07.632Z,78.83
2022-08-03T02:08:05.497Z,78.93
2022-08-03T02:09:05.036Z,78.83
2022-08-03T02:10:05.100Z,78.63
2022-08-03T02:11:05.025Z,78.93
2022-08-03T02:12:04.995Z,78.63
2022-08-03T02:13:04.981Z,78.42
2022-08-03T02:14:04.989Z,78.56
2022-08-03T02:15:05.364Z,78.53
2022-08-03T02:16:05.022Z,78.46
2022-08-03T02:17:04.968Z,78.56
2022-08-03T02:18:04.948Z,78.46
2022-08-03T02:19:04.917Z,78.66
2022-08-03T02:20:04.916Z,78.56
2022-08-03T02:21:10.880Z,78.56
2022-08-03T02:22:04.933Z,78.56
2022-08-03T02:23:04.888Z,78.46
2022-08-03T02:24:04.880Z,78.27
2022-08-03T02:25:04.859Z,78.46
2022-08-03T02:26:04.867Z,78.46
2022-08-03T02:27:04.861Z,78.66
2022-08-03T02:28:05.310Z,78.27
2022-08-03T02:29:04.805Z,78.36
2022-08-03T02:30:04.803Z,78.56
2022-08-03T02:31:04.797Z,78.66
2022-08-03T02:32:04.783Z,78.86
2022-08-03T02:33:04.786Z,78.86
2022-08-03T02:34:04.825Z,78.97
2022-08-03T02:35:05.063Z,79.17
2022-08-03T02:36:04.743Z,79.17
2022-08-03T02:37:04.727Z,79.17
2022-08-03T02:38:04.723Z,79.27
2022-08-03T02:39:04.695Z,79.17
2022-08-03T02:40:04.770Z,79.17
2022-08-03T02:41:04.681Z,79.47
2022-08-03T02:42:05.108Z,79.61
2022-08-03T02:43:04.688Z,79.50
2022-08-03T02:44:06.127Z,79.17
2022-08-03T02:45:04.636Z,79.37
2022-08-03T02:46:04.656Z,79.47
2022-08-03T02:47:04.610Z,79.47
2022-08-03T02:48:04.618Z,79.37
2022-08-03T02:49:49.927Z,79.47
2022-08-03T02:50:04.650Z,79.47
2022-08-03T02:51:04.573Z,79.47
2022-08-03T02:52:04.605Z,79.37
2022-08-03T02:53:04.565Z,79.47
2022-08-03T02:54:04.563Z,79.47
2022-08-03T02:55:04.530Z,79.57
2022-08-03T02:56:04.998Z,79.67
2022-08-03T02:57:04.504Z,79.81
2022-08-03T02:58:04.547Z,79.91
2022-08-03T02:59:04.497Z,79.91
2022-08-03T03:00:04.477Z,80.01
2022-08-03T03:01:04.551Z,80.21
2022-08-03T03:02:04.461Z,80.11
2022-08-03T03:03:04.844Z,80.21
2022-08-03T03:04:04.453Z,80.21
2022-08-03T03:05:52.448Z,80.61
2022-08-03T03:06:05.581Z,80.41
2022-08-03T03:07:04.671Z,80.61
2022-08-03T03:08:04.393Z,80.61
2022-08-03T03:09:04.402Z,80.61
2022-08-03T03:10:04.737Z,80.61
2022-08-03T03:11:04.355Z,80.71
2022-08-03T03:12:04.357Z,80.71
2022-08-03T03:13:04.330Z,80.71
2022-08-03T03:14:04.366Z,80.81
2022-08-03T03:15:04.339Z,80.81
2022-08-03T03:16:04.358Z,80.91
2022-08-03T03:17:04.732Z,81.01
2022-08-03T03:18:04.282Z,81.01
2022-08-03T03:19:04.278Z,80.95
2022-08-03T03:20:04.259Z,81.15
2022-08-03T03:21:04.249Z,81.12
2022-08-03T03:22:04.262Z,81.26
2022-08-03T03:23:04.230Z,81.26
2022-08-03T03:24:04.570Z,81.26
2022-08-03T03:25:04.217Z,81.35
2022-08-03T03:26:04.190Z,81.65
2022-08-03T03:27:04.191Z,81.46
2022-08-03T03:28:04.946Z,81.65
2022-08-03T03:29:04.154Z,81.56
2022-08-03T03:30:04.156Z,81.35
2022-08-03T03:31:04.627Z,81.46
2022-08-03T03:32:04.169Z,81.56
2022-08-03T03:33:04.127Z,81.46
2022-08-03T03:34:04.130Z,81.35
2022-08-03T03:35:04.107Z,81.26
2022-08-03T03:36:04.229Z,81.35
2022-08-03T03:37:04.072Z,81.26
2022-08-03T03:38:04.469Z,81.26
2022-08-03T03:39:15.427Z,81.21
2022-08-03T03:40:04.073Z,81.21
2022-08-03T03:41:04.026Z,81.21
2022-08-03T03:42:04.050Z,81.26
2022-08-03T03:43:03.998Z,81.46
2022-08-03T03:44:03.994Z,81.65
2022-08-03T03:45:04.304Z,81.56
2022-08-03T03:46:03.992Z,81.56
2022-08-03T03:47:03.965Z,81.65
2022-08-03T03:48:03.942Z,81.76
2022-08-03T03:49:04.011Z,81.65
2022-08-03T03:50:03.919Z,81.85
2022-08-03T03:51:03.919Z,81.96
2022-08-03T03:52:04.419Z,82.06
2022-08-03T03:53:03.903Z,81.96
2022-08-03T03:54:03.909Z,81.96
2022-08-03T03:55:03.877Z,82.06
2022-08-03T03:56:03.854Z,82.06
2022-08-03T03:57:03.862Z,81.96
2022-08-03T03:58:03.931Z,81.96
2022-08-03T03:59:04.199Z,81.96
2022-08-03T04:00:03.818Z,82.06
2022-08-03T04:01:03.943Z,81.96
2022-08-03T04:02:03.791Z,82.06
2022-08-03T04:03:03.800Z,82.06
2022-08-03T04:04:03.814Z,81.96
2022-08-03T04:05:03.766Z,81.96
2022-08-03T04:06:04.056Z,81.96
2022-08-03T04:07:03.736Z,81.85
2022-08-03T04:08:03.735Z,81.96
2022-08-03T04:09:03.717Z,81.85
2022-08-03T04:10:14.433Z,81.96
2022-08-03T04:11:03.704Z,82.06
2022-08-03T04:12:03.685Z,81.96
2022-08-03T04:13:05.126Z,81.96
2022-08-03T04:14:03.665Z,81.85
2022-08-03T04:15:03.651Z,81.85
2022-08-03T04:16:03.712Z,81.65
2022-08-03T04:17:03.651Z,81.72
2022-08-03T04:18:03.614Z,81.62
2022-08-03T04:19:03.608Z,81.62
2022-08-03T04:20:04.130Z,81.62
2022-08-03T04:21:03.607Z,81.62
2022-08-03T04:22:03.606Z,81.52
2022-08-03T04:23:03.590Z,81.41
2022-08-03T04:24:03.556Z,81.41
2022-08-03T04:25:03.551Z,81.32
2022-08-03T04:26:03.531Z,81.41
2022-08-03T04:27:03.999Z,81.21
2022-08-03T04:28:07.982Z,81.21
2022-08-03T04:29:03.512Z,81.21
2022-08-03T04:30:03.484Z,81.01
2022-08-03T04:31:03.482Z,81.12
2022-08-03T04:32:03.467Z,81.01
2022-08-03T04:33:03.468Z,80.91
2022-08-03T04:34:03.874Z,81.01
2022-08-03T04:35:03.433Z,80.91
2022-08-03T04:36:03.928Z,81.12
2022-08-03T04:37:03.410Z,80.91
2022-08-03T04:38:03.399Z,81.12
2022-08-03T04:39:03.391Z,81.01
2022-08-03T04:40:03.399Z,80.91
2022-08-03T04:41:04.690Z,80.98
2022-08-03T04:42:08.594Z,81.18
2022-08-03T04:43:03.352Z,81.07
2022-08-03T04:44:03.371Z,81.38
2022-08-03T04:45:03.332Z,80.88
2022-08-03T04:46:03.338Z,81.07
2022-08-03T04:47:03.300Z,81.07
2022-08-03T04:48:03.706Z,80.98
2022-08-03T04:49:03.338Z,81.07
2022-08-03T04:50:03.262Z,80.98
2022-08-03T04:51:03.259Z,80.98
2022-08-03T04:52:03.266Z,80.88
2022-08-03T04:53:03.240Z,80.77
2022-08-03T04:54:03.228Z,81.18
2022-08-03T04:55:03.554Z,80.98
2022-08-03T04:56:03.231Z,80.88
2022-08-03T04:57:03.195Z,80.98
2022-08-03T04:58:03.215Z,80.68
2022-08-03T04:59:03.179Z,80.77
2022-08-03T05:00:03.801Z,80.98
2022-08-03T05:01:03.156Z,80.63
2022-08-03T05:02:03.675Z,80.43
2022-08-03T05:03:03.137Z,80.43
2022-08-03T05:04:03.151Z,80.54
2022-08-03T05:05:03.109Z,80.54
2022-08-03T05:06:11.012Z,80.43
2022-08-03T05:07:11.603Z,80.33
2022-08-03T05:08:03.377Z,80.54
2022-08-03T05:09:03.553Z,80.63
2022-08-03T05:10:03.547Z,80.33
2022-08-03T05:11:03.060Z,80.33
2022-08-03T05:12:03.029Z,80.04
2022-08-03T05:13:03.031Z,80.24
2022-08-03T05:14:03.030Z,80.30
2022-08-03T05:15:03.040Z,79.80
2022-08-03T05:16:03.445Z,79.90
2022-08-03T05:17:02.985Z,79.49
2022-08-03T05:18:02.999Z,79.60
2022-08-03T05:19:02.966Z,79.29
2022-08-03T05:20:02.945Z,79.29
2022-08-03T05:21:02.990Z,79.29
2022-08-03T05:22:02.974Z,79.29
2022-08-03T05:23:03.256Z,79.25
2022-08-03T05:24:02.903Z,79.16
2022-08-03T05:25:02.899Z,79.16
2022-08-03T05:26:02.885Z,79.16
2022-08-03T05:27:02.887Z,78.85
2022-08-03T05:28:02.933Z,78.75
2022-08-03T05:29:02.874Z,78.35
2022-08-03T05:30:30.393Z,78.75
2022-08-03T05:31:02.844Z,78.52
2022-08-03T05:32:08.034Z,78.42
2022-08-03T05:33:02.822Z,78.72
2022-08-03T05:34:02.821Z,78.52
2022-08-03T05:35:56.847Z,78.22
2022-08-03T05:36:07.828Z,78.22
2022-08-03T05:37:02.773Z,78.22
2022-08-03T05:38:02.782Z,77.67
2022-08-03T05:39:03.080Z,77.58
2022-08-03T05:40:02.790Z,77.58
2022-08-03T05:41:21.154Z,77.58
2022-08-03T05:42:02.717Z,77.37
2022-08-03T05:43:03.166Z,77.37
2022-08-03T05:44:02.693Z,77.24
2022-08-03T05:45:02.681Z,77.14
2022-08-03T05:46:11.904Z,76.84
2022-08-03T05:47:02.675Z,77.04
2022-08-03T05:48:02.644Z,76.64
2022-08-03T05:49:03.067Z,76.94
2022-08-03T05:50:02.623Z,76.64
2022-08-03T05:51:02.642Z,76.94
2022-08-03T05:52:15.647Z,76.04
2022-08-03T05:53:02.610Z,76.00
2022-08-03T05:54:02.595Z,76.40
2022-08-03T05:55:02.589Z,75.60
2022-08-03T05:56:13.354Z,75.90
2022-08-03T05:57:02.597Z,74.80
2022-08-03T05:58:02.583Z,75.50
2022-08-03T05:59:22.503Z,75.00
2022-08-03T06:00:02.569Z,74.76
2022-08-03T06:01:02.917Z,73.96
2022-08-03T06:02:02.590Z,73.76
2022-08-03T06:03:02.515Z,73.96
2022-08-03T06:04:02.524Z,73.86
2022-08-03T06:05:02.538Z,74.22
2022-08-03T06:06:02.534Z,73.22
2022-08-03T06:07:02.456Z,73.22
2022-08-03T06:08:02.915Z,73.22
2022-08-03T06:09:02.439Z,72.83
2022-08-03T06:10:36.858Z,72.79
2022-08-03T06:11:02.425Z,72.59
2022-08-03T06:12:02.409Z,71.96
2022-08-03T06:13:02.395Z,70.59
2022-08-03T06:14:02.405Z,69.66
2022-08-03T06:15:02.760Z,68.10
2022-08-03T06:16:02.392Z,66.77
2022-08-03T06:17:02.366Z,65.54
2022-08-03T06:18:02.422Z,65.14
2022-08-03T06:19:02.332Z,64.42
2022-08-03T06:20:02.312Z,63.59
2022-08-03T06:21:14.495Z,63.26
2022-08-03T06:22:02.343Z,61.83
2022-08-03T06:23:02.287Z,62.16
2022-08-03T06:24:02.592Z,61.74
2022-08-03T06:25:04.900Z,60.71
2022-08-03T06:26:02.259Z,60.69
2022-08-03T06:27:02.258Z,59.79
2022-08-03T06:28:02.699Z,59.27
2022-08-03T06:29:03.820Z,59.27
2022-08-03T06:30:02.227Z,59.27
2022-08-03T06:31:02.206Z,59.76
2022-08-03T06:32:02.201Z,58.61
2022-08-03T06:33:02.200Z,57.50
2022-08-03T06:34:32.839Z,56.74
2022-08-03T06:35:02.171Z,55.96
2022-08-03T06:36:02.166Z,55.36
2022-08-03T06:37:02.503Z,55.46
2022-08-03T06:38:02.143Z,55.56
2022-08-03T06:39:02.156Z,54.94
2022-08-03T06:40:02.136Z,54.42
2022-08-03T06:41:02.541Z,53.99
2022-08-03T06:42:02.127Z,53.30
2022-08-03T06:43:02.082Z,53.50
2022-08-03T06:44:03.999Z,53.60
2022-08-03T06:45:02.064Z,54.32
2022-08-03T06:46:02.092Z,54.19
2022-08-03T06:47:02.071Z,54.52
2022-08-03T06:48:02.372Z,54.81
2022-08-03T06:49:02.111Z,54.42
2022-08-03T06:50:16.313Z,54.91
2022-08-03T06:51:02.050Z,54.61
2022-08-03T06:52:06.107Z,53.38
2022-08-03T06:53:01.996Z,52.63
2022-08-03T06:54:01.977Z,51.69
2022-08-03T06:55:02.413Z,50.29
2022-08-03T06:56:01.978Z,50.07
2022-08-03T06:57:01.975Z,49.62
2022-08-03T06:58:03.580Z,48.83
2022-08-03T06:59:01.936Z,49.04
2022-08-03T07:00:06.042Z,49.97
2022-08-03T07:01:01.985Z,51.28
2022-08-03T07:02:01.891Z,51.82
2022-08-03T07:03:02.382Z,51.92
2022-08-03T07:04:01.912Z,50.88
2022-08-03T07:05:01.882Z,49.62
2022-08-03T07:06:01.873Z,48.64
2022-08-03T07:07:01.872Z,48.44
2022-08-03T07:08:01.874Z,49.35
2022-08-03T07:09:01.859Z,49.45
2022-08-03T07:10:03.334Z,49.75
2022-08-03T07:11:01.859Z,49.33
2022-08-03T07:12:01.811Z,48.49
2022-08-03T07:13:01.823Z,47.39
2022-08-03T07:14:01.816Z,47.07
2022-08-03T07:15:03.179Z,46.75
2022-08-03T07:16:01.808Z,46.14
2022-08-03T07:17:11.408Z,45.55
2022-08-03T07:18:01.760Z,46.58
2022-08-03T07:19:01.747Z,47.80
2022-08-03T07:20:01.766Z,48.00
2022-08-03T07:21:01.762Z,47.78
2022-08-03T07:22:02.136Z,47.27
2022-08-03T07:23:01.739Z,46.97
2022-08-03T07:24:02.105Z,46.88
2022-08-03T07:25:02.644Z,47.91
2022-08-03T07:26:01.725Z,48.13
2022-08-03T07:27:01.709Z,49.04
2022-08-03T07:28:01.711Z,49.33
2022-08-03T07:29:01.675Z,49.75
2022-08-03T07:30:01.686Z,48.86
2022-08-03T07:31:01.947Z,49.55
2022-08-03T07:32:01.632Z,49.67
2022-08-03T07:33:01.638Z,50.24
2022-08-03T07:34:01.671Z,50.04
2022-08-03T07:35:01.876Z,49.73
2022-08-03T07:36:01.605Z,49.30
2022-08-03T07:37:01.612Z,49.18
2022-08-03T07:38:02.023Z,48.27
2022-08-03T07:39:01.590Z,48.35
2022-08-03T07:40:01.653Z,47.54
2022-08-03T07:41:01.556Z,46.85
2022-08-03T07:42:01.608Z,46.46
2022-08-03T07:43:01.558Z,46.83
2022-08-03T07:44:01.563Z,46.44
2022-08-03T07:45:01.862Z,46.53
2022-08-03T07:46:01.571Z,47.29
2022-08-03T07:47:03.410Z,48.71
2022-08-03T07:48:01.510Z,49.33
2022-08-03T07:49:01.533Z,50.54
2022-08-03T07:50:01.538Z,50.24
2022-08-03T07:51:01.485Z,50.83
2022-08-03T07:52:01.977Z,51.15
2022-08-03T07:53:01.487Z,51.35
2022-08-03T07:54:01.512Z,51.12
2022-08-03T07:55:01.437Z,50.09
2022-08-03T07:56:01.442Z,49.50
2022-08-03T07:57:01.429Z,49.90
2022-08-03T07:58:01.448Z,49.80
2022-08-03T07:59:01.408Z,50.02
2022-08-03T08:00:02.596Z,49.52
2022-08-03T08:01:01.439Z,49.82
2022-08-03T08:02:01.383Z,49.01
2022-08-03T08:03:01.391Z,49.01
2022-08-03T08:04:01.403Z,49.60
2022-08-03T08:05:05.558Z,49.99
2022-08-03T08:06:01.353Z,48.82
2022-08-03T08:07:01.354Z,48.71
2022-08-03T08:08:01.336Z,48.91
2022-08-03T08:09:01.319Z,50.42
2022-08-03T08:10:01.389Z,49.73
2022-08-03T08:11:01.817Z,49.75
2022-08-03T08:12:01.323Z,50.63
2022-08-03T08:13:01.292Z,50.51
2022-08-03T08:14:01.273Z,50.12
2022-08-03T08:15:01.262Z,49.68
2022-08-03T08:16:01.321Z,49.26
2022-08-03T08:17:04.446Z,48.25
2022-08-03T08:18:01.263Z,47.96
2022-08-03T08:19:01.237Z,46.97
2022-08-03T08:20:01.230Z,47.44
2022-08-03T08:21:01.218Z,46.95
2022-08-03T08:22:02.373Z,47.03
2022-08-03T08:23:02.132Z,46.95
2022-08-03T08:24:01.192Z,47.17
2022-08-03T08:25:01.615Z,47.36
2022-08-03T08:26:01.178Z,47.56
2022-08-03T08:27:01.180Z,47.83
2022-08-03T08:28:29.064Z,48.23
2022-08-03T08:29:01.156Z,47.83
2022-08-03T08:30:10.384Z,47.34
2022-08-03T08:31:01.144Z,46.58
2022-08-03T08:32:01.126Z,46.31
2022-08-03T08:33:01.107Z,47.12
2022-08-03T08:34:03.946Z,47.31
2022-08-03T08:35:01.100Z,48.30
2022-08-03T08:36:01.107Z,47.98
2022-08-03T08:37:01.371Z,47.78
2022-08-03T08:38:05.553Z,47.39
2022-08-03T08:39:01.063Z,47.02
2022-08-03T08:40:01.085Z,47.31
2022-08-03T08:41:01.042Z,47.92
2022-08-03T08:42:01.163Z,48.03
2022-08-03T08:43:01.029Z,48.91
2022-08-03T08:44:01.421Z,48.61
2022-08-03T08:45:01.000Z,48.42
2022-08-03T08:46:01.079Z,47.91
2022-08-03T08:47:00.978Z,48.30
2022-08-03T08:48:03.534Z,48.10
2022-08-03T08:49:01.029Z,47.80
2022-08-03T08:50:09.684Z,48.30
2022-08-03T08:51:00.945Z,48.00
2022-08-03T08:52:01.664Z,48.67
2022-08-03T08:53:00.923Z,48.27
2022-08-03T08:54:00.922Z,48.08
2022-08-03T08:55:00.911Z,48.45
2022-08-03T08:56:01.464Z,47.47
2022-08-03T08:57:00.890Z,46.88
2022-08-03T08:58:00.917Z,46.58
2022-08-03T08:59:00.909Z,47.91
2022-08-03T09:00:00.870Z,48.27
2022-08-03T09:01:00.926Z,48.18
2022-08-03T09:02:00.846Z,47.29
2022-08-03T09:03:01.132Z,46.90
2022-08-03T09:04:00.852Z,47.78
2022-08-03T09:05:05.287Z,47.80
2022-08-03T09:06:00.864Z,48.00
2022-08-03T09:07:19.153Z,48.13
2022-08-03T09:08:00.789Z,49.33
2022-08-03T09:09:00.774Z,50.14
2022-08-03T09:10:12.267Z,49.75
2022-08-03T09:11:00.752Z,50.14
2022-08-03T09:12:20.037Z,49.95
2022-08-03T09:13:00.747Z,50.02
2022-08-03T09:14:00.745Z,48.83
2022-08-03T09:15:16.405Z,49.33
2022-08-03T09:16:01.610Z,49.73
2022-08-03T09:17:01.024Z,49.04
2022-08-03T09:18:00.692Z,49.73
2022-08-03T09:19:00.708Z,49.13
2022-08-03T09:20:03.424Z,48.82
2022-08-03T09:21:18.942Z,49.70
2022-08-03T09:22:00.690Z,49.60
2022-08-03T09:23:00.642Z,49.11
2022-08-03T09:24:03.355Z,49.43
2022-08-03T09:25:22.667Z,49.90
2022-08-03T09:26:00.702Z,49.90
2022-08-03T09:27:00.619Z,49.06
2022-08-03T09:28:01.222Z,49.04
2022-08-03T09:29:05.708Z,48.74
2022-08-03T09:30:00.593Z,48.25
2022-08-03T09:31:00.928Z,47.64
2022-08-03T09:32:00.603Z,47.64
2022-08-03T09:33:00.545Z,47.83
2022-08-03T09:34:00.667Z,47.61
2022-08-03T09:35:00.569Z,46.51
2022-08-03T09:36:00.555Z,46.22
2022-08-03T09:37:00.539Z,45.83
2022-08-03T09:38:12.387Z,46.04
2022-08-03T09:39:00.495Z,46.53
2022-08-03T09:40:00.540Z,47.32
2022-08-03T09:41:01.075Z,46.75
2022-08-03T09:42:00.478Z,46.85
2022-08-03T09:43:00.465Z,46.97
2022-08-03T09:44:00.442Z,47.34
2022-08-03T09:45:00.818Z,47.34
2022-08-03T09:46:00.484Z,46.75
2022-08-03T09:47:00.409Z,47.25
2022-08-03T09:48:00.420Z,46.68
2022-08-03T09:49:00.448Z,46.60
2022-08-03T09:50:00.388Z,46.60
2022-08-03T09:51:12.847Z,46.11
2022-08-03T09:52:31.569Z,45.81
2022-08-03T09:53:00.373Z,46.50
2022-08-03T09:54:00.585Z,46.43
2022-08-03T09:55:00.359Z,46.62
2022-08-03T09:56:33.599Z,47.14
2022-08-03T09:57:00.317Z,47.14
2022-08-03T09:58:00.793Z,47.04
2022-08-03T09:59:00.292Z,47.53
2022-08-03T10:00:04.427Z,46.75
2022-08-03T10:01:00.402Z,47.26
2022-08-03T10:02:00.273Z,47.75
2022-08-03T10:03:00.280Z,47.75
2022-08-03T10:04:03.276Z,48.37
2022-08-03T10:05:00.255Z,48.66
2022-08-03T10:06:00.334Z,48.57
2022-08-03T10:07:00.249Z,48.14
2022-08-03T10:08:00.240Z,48.35
2022-08-03T10:09:00.204Z,47.36
2022-08-03T10:10:31.110Z,47.36
2022-08-03T10:11:00.202Z,48.13
2022-08-03T10:12:00.209Z,47.34
2022-08-03T10:13:00.287Z,47.41
2022-08-03T10:14:01.626Z,47.69
2022-08-03T10:15:00.150Z,46.60
2022-08-03T10:16:22.719Z,46.53
2022-08-03T10:17:00.206Z,46.94
2022-08-03T10:18:00.132Z,46.94
2022-08-03T10:19:00.130Z,47.46
2022-08-03T10:20:00.135Z,47.75
2022-08-03T10:21:00.089Z,47.56
2022-08-03T10:22:00.729Z,47.46
2022-08-03T10:23:00.394Z,47.66
2022-08-03T10:24:00.104Z,48.03
2022-08-03T10:25:00.070Z,47.53
2022-08-03T10:26:00.058Z,47.36
2022-08-03T10:27:00.026Z,48.03
2022-08-03T10:28:00.133Z,47.51
2022-08-03T10:29:00.057Z,46.70
2022-08-03T10:30:00.436Z,45.79
2022-08-03T10:31:00.013Z,45.72
2022-08-03T10:31:59.993Z,47.00
2022-08-03T10:33:00.087Z,46.01
2022-08-03T10:34:00.047Z,46.68
2022-08-03T10:35:04.043Z,46.38
2022-08-03T10:36:00.058Z,45.79
2022-08-03T10:37:00.258Z,45.28
2022-08-03T10:37:59.946Z,44.98
2022-08-03T10:38:59.922Z,44.98
2022-08-03T10:40:00.009Z,45.28
2022-08-03T10:40:59.904Z,44.98
2022-08-03T10:42:02.448Z,44.89
2022-08-03T10:42:59.858Z,45.18
2022-08-03T10:43:59.923Z,45.38
2022-08-03T10:45:01.146Z,44.69
2022-08-03T10:45:59.946Z,45.30
2022-08-03T10:46:59.864Z,45.57
2022-08-03T10:47:59.861Z,45.38
2022-08-03T10:48:59.882Z,44.57
2022-08-03T10:49:59.874Z,45.16
2022-08-03T10:50:59.795Z,43.86
2022-08-03T10:51:59.845Z,44.06
2022-08-03T10:53:01.983Z,43.88
2022-08-03T10:53:59.767Z,44.10
2022-08-03T10:54:59.771Z,45.20
2022-08-03T10:56:00.161Z,45.62
2022-08-03T10:57:01.099Z,45.32
2022-08-03T10:57:59.772Z,46.13
2022-08-03T10:58:59.745Z,46.33
2022-08-03T10:59:59.724Z,46.01
2022-08-03T11:00:59.771Z,45.01
2022-08-03T11:02:00.770Z,44.69
2022-08-03T11:03:00.056Z,44.67
2022-08-03T11:03:59.765Z,44.18
2022-08-03T11:04:59.686Z,43.18
2022-08-03T11:05:59.674Z,42.98
2022-08-03T11:06:59.660Z,43.35
2022-08-03T11:07:59.651Z,42.96
2022-08-03T11:08:59.627Z,43.04
2022-08-03T11:10:00.159Z,42.94
2022-08-03T11:10:59.652Z,42.55
2022-08-03T11:11:59.603Z,42.23
2022-08-03T11:12:59.610Z,42.52
2022-08-03T11:13:59.753Z,42.82
2022-08-03T11:14:59.577Z,42.33
2022-08-03T11:16:02.227Z,42.33
2022-08-03T11:16:59.841Z,41.56
2022-08-03T11:17:59.562Z,41.37
2022-08-03T11:19:00.134Z,41.55
2022-08-03T11:19:59.544Z,42.05
2022-08-03T11:20:59.531Z,42.23
2022-08-03T11:21:59.537Z,42.43
2022-08-03T11:22:59.482Z,41.50
2022-08-03T11:24:04.129Z,41.21
2022-08-03T11:24:59.456Z,41.29
2022-08-03T11:25:59.476Z,40.21
2022-08-03T11:27:03.041Z,40.70
2022-08-03T11:27:59.535Z,40.41
2022-08-03T11:28:59.425Z,40.80
2022-08-03T11:29:59.435Z,40.95
2022-08-03T11:30:59.822Z,39.37
2022-08-03T11:31:59.446Z,38.87
2022-08-03T11:32:59.377Z,38.65
2022-08-03T11:33:59.435Z,38.75
2022-08-03T11:35:00.308Z,38.77
2022-08-03T11:35:59.371Z,39.02
2022-08-03T11:36:59.363Z,40.23
2022-08-03T11:38:04.330Z,39.94
2022-08-03T11:38:59.312Z,40.62
2022-08-03T11:39:59.340Z,40.41
2022-08-03T11:40:59.326Z,40.31
2022-08-03T11:41:59.311Z,40.92
2022-08-03T11:42:59.281Z,40.84
2022-08-03T11:43:59.271Z,41.64
2022-08-03T11:44:59.668Z,41.25
2022-08-03T11:45:59.285Z,41.86
2022-08-03T11:46:59.275Z,42.10
2022-08-03T11:47:59.233Z,42.51
2022-08-03T11:48:59.275Z,42.88
2022-08-03T11:49:59.302Z,42.27
2022-08-03T11:50:59.189Z,42.05
2022-08-03T11:51:59.600Z,41.35
2022-08-03T11:52:59.193Z,40.86
2022-08-03T11:53:59.173Z,39.76
2022-08-03T11:54:59.162Z,40.03
2022-08-03T11:55:59.150Z,38.81
2022-08-03T11:56:59.158Z,37.89
2022-08-03T11:59:03.380Z,37.57
2022-08-03T11:59:25.690Z,36.60
2022-08-03T11:59:59.113Z,37.57
2022-08-03T12:00:59.113Z,36.60
2022-08-03T12:01:59.089Z,36.70
2022-08-03T12:02:59.150Z,37.02
2022-08-03T12:03:59.144Z,38.34
2022-08-03T12:04:59.070Z,39.12
2022-08-03T12:05:59.409Z,38.14
2022-08-03T12:06:59.071Z,38.51
2022-08-03T12:08:04.373Z,38.30
2022-08-03T12:08:59.032Z,38.02
2022-08-03T12:09:59.067Z,37.96
2022-08-03T12:11:00.025Z,38.43
2022-08-03T12:12:00.304Z,38.34
2022-08-03T12:12:59.450Z,39.45
2022-08-03T12:14:49.087Z,39.62
2022-08-03T12:14:58.980Z,39.70
2022-08-03T12:15:59.004Z,39.41
2022-08-03T12:16:58.968Z,39.78
2022-08-03T12:17:58.956Z,38.28
2022-08-03T12:18:58.959Z,36.60
2022-08-03T12:19:59.310Z,36.31
2022-08-03T12:20:58.905Z,36.19
2022-08-03T12:21:59.003Z,36.66
2022-08-03T12:22:58.894Z,35.59
2022-08-03T12:23:58.888Z,36.49
2022-08-03T12:24:58.973Z,36.39
2022-08-03T12:25:58.868Z,36.99
2022-08-03T12:27:00.023Z,36.80
2022-08-03T12:27:58.885Z,36.62
2022-08-03T12:28:58.836Z,36.99
2022-08-03T12:29:59.300Z,37.17
2022-08-03T12:30:58.818Z,36.35
2022-08-03T12:31:58.794Z,35.36
2022-08-03T12:32:58.801Z,34.50
2022-08-03T12:33:59.368Z,34.21
2022-08-03T12:35:00.183Z,34.89
2022-08-03T12:35:58.759Z,34.88
2022-08-03T12:36:58.786Z,34.17
2022-08-03T12:37:58.739Z,33.88
2022-08-03T12:38:58.724Z,35.16
2022-08-03T12:40:02.744Z,35.36
2022-08-03T12:40:58.718Z,34.86
2022-08-03T12:41:58.712Z,34.14
2022-08-03T12:42:58.708Z,34.32
2022-08-03T12:43:58.691Z,33.34
2022-08-03T12:44:58.679Z,32.17
2022-08-03T12:45:58.725Z,32.54
2022-08-03T12:46:58.967Z,31.95
2022-08-03T12:47:58.647Z,31.74
2022-08-03T12:48:58.741Z,32.02
2022-08-03T12:49:59.048Z,31.82
2022-08-03T12:50:58.860Z,31.47
2022-08-03T12:52:00.047Z,31.58